Time;durP1;ratioP1;P1;durP2;ratioP2;P2;SDS_P1;SDS_P2;PMS_P1;PMS_P2;Temp;Humidity;BMP_temperature;BMP_pressure;BME280_temperature;BME280_humidity;BME280_pressure;Samples;Min_cycle;Max_cycle;Signal;HPM_P1;HPM_P2
2022/02/08 00:01:06;;;;;;;2.03;0.93;;;0.30;99.90;;;;;;6221178;23;20011;-88
2022/02/08 00:03:32;;;;;;;3.93;1.23;;;0.30;99.90;;;;;;6248192;23;20409;-86
2022/02/08 00:06:18;;;;;;;3.70;0.90;;;0.30;99.90;;;;;;6220848;23;20009;-86
2022/02/08 00:08:43;;;;;;;5.80;0.83;;;0.30;99.90;;;;;;6246110;23;20004;-86
2022/02/08 00:11:10;;;;;;;4.27;0.73;;;0.40;99.90;;;;;;6246365;23;20465;-86
2022/02/08 00:13:36;;;;;;;2.00;0.93;;;0.10;99.90;;;;;;6247189;23;20004;-88
2022/02/08 00:16:02;;;;;;;4.07;1.00;;;0.20;99.90;;;;;;6220251;23;20154;-87
2022/02/08 00:18:27;;;;;;;4.97;0.90;;;0.30;99.90;;;;;;6245393;23;20008;-87
2022/02/08 00:20:53;;;;;;;4.80;1.20;;;0.20;99.90;;;;;;6221120;23;20079;-87
2022/02/08 00:23:21;;;;;;;3.23;0.97;;;0.20;99.90;;;;;;6240689;23;20011;-87
2022/02/08 00:25:47;;;;;;;4.23;1.13;;;0.20;99.90;;;;;;6265269;22;20023;-86
2022/02/08 00:28:13;;;;;;;4.63;1.30;;;0.30;99.90;;;;;;6259340;23;20000;-87
2022/02/08 00:30:41;;;;;;;5.87;1.20;;;0.30;99.90;;;;;;6248611;23;20008;-87
2022/02/08 00:33:07;;;;;;;3.90;0.60;;;0.30;99.90;;;;;;6221050;23;20522;-87
2022/02/08 00:35:32;;;;;;;1.17;0.57;;;0.30;99.90;;;;;;6221740;23;20058;-87
2022/02/08 00:37:58;;;;;;;4.97;1.00;;;0.30;99.90;;;;;;6248771;23;20000;-88
2022/02/08 00:40:26;;;;;;;6.10;1.00;;;0.40;99.90;;;;;;6262749;22;20004;-86
2022/02/08 00:42:52;;;;;;;2.30;0.60;;;0.40;99.90;;;;;;6243279;22;20016;-86
2022/02/08 00:50:42;;;;;;;2.57;0.60;;;0.50;99.90;;;;;;6250314;23;20477;-88
2022/02/08 00:53:07;;;;;;;8.23;1.73;;;0.50;99.90;;;;;;6249066;23;20004;-86
2022/02/08 00:55:33;;;;;;;5.47;0.80;;;0.50;99.90;;;;;;6223162;23;20038;-88
2022/02/08 00:57:59;;;;;;;3.57;1.47;;;0.50;99.90;;;;;;6223110;23;20438;-87
2022/02/08 01:00:25;;;;;;;2.43;0.60;;;0.60;99.90;;;;;;6221441;23;20012;-88
2022/02/08 01:02:52;;;;;;;2.33;0.87;;;0.60;99.90;;;;;;6221460;23;20051;-88
2022/02/08 01:05:18;;;;;;;4.37;0.80;;;0.60;99.90;;;;;;6220266;23;20011;-88
2022/02/08 01:07:44;;;;;;;2.00;0.80;;;0.70;99.90;;;;;;6247426;23;20008;-88
2022/02/08 01:10:10;;;;;;;6.53;1.30;;;0.70;99.90;;;;;;6221850;23;20000;-88
2022/02/08 01:12:43;;;;;;;1.23;0.53;;;0.70;99.90;;;;;;6247949;23;20080;-86
2022/02/08 01:15:09;;;;;;;1.87;0.57;;;0.80;99.90;;;;;;6247295;22;20016;-88
2022/02/08 01:17:35;;;;;;;1.10;0.40;;;0.70;99.90;;;;;;6247288;23;20081;-87
2022/02/08 01:20:16;;;;;;;1.50;0.40;;;0.70;99.90;;;;;;6221684;23;20008;-87
2022/02/08 01:22:42;;;;;;;4.23;0.70;;;0.80;99.90;;;;;;6221092;23;20028;-86
2022/02/08 01:25:14;;;;;;;3.87;0.77;;;0.70;99.90;;;;;;6221502;23;20091;-87
2022/02/08 01:27:48;;;;;;;1.80;0.50;;;0.80;99.90;;;;;;6222313;23;20007;-87
2022/02/08 01:30:26;;;;;;;6.83;0.73;;;0.70;99.90;;;;;;6247499;23;20020;-87
2022/02/08 01:35:41;;;;;;;5.72;1.15;;;0.70;99.90;;;;;;6251871;22;20259;-88
2022/02/08 01:38:22;;;;;;;2.53;0.53;;;0.70;99.90;;;;;;6221753;23;20000;-87
2022/02/08 01:48:52;;;;;;;2.87;0.77;;;0.60;99.90;;;;;;6208441;23;20001;-85
2022/02/08 01:51:18;;;;;;;6.83;0.70;;;0.60;99.90;;;;;;6219598;23;20075;-87
2022/02/08 01:53:44;;;;;;;3.97;0.87;;;0.60;99.90;;;;;;6219844;23;20460;-87
2022/02/08 01:56:10;;;;;;;3.40;0.80;;;0.60;99.90;;;;;;6220029;23;20000;-87
2022/02/08 01:58:36;;;;;;;5.87;0.87;;;0.60;99.90;;;;;;6216977;23;20012;-87
2022/02/08 02:01:02;;;;;;;2.13;0.83;;;0.60;99.90;;;;;;6247977;23;20062;-88
2022/02/08 02:03:28;;;;;;;2.33;0.80;;;0.70;99.90;;;;;;6248055;23;20019;-87
2022/02/08 02:05:54;;;;;;;3.47;0.60;;;0.70;99.90;;;;;;6249087;22;20431;-88
2022/02/08 02:08:20;;;;;;;5.37;0.80;;;0.60;99.90;;;;;;6220846;23;20004;-87
2022/02/08 02:10:46;;;;;;;3.43;1.07;;;0.70;99.90;;;;;;6247391;23;20035;-87
2022/02/08 02:13:34;;;;;;;4.33;1.10;;;0.70;99.90;;;;;;6248227;23;20000;-87
2022/02/08 02:16:02;;;;;;;4.17;0.87;;;0.70;99.90;;;;;;6247201;22;20486;-87
2022/02/08 02:18:27;;;;;;;8.00;1.07;;;0.80;99.90;;;;;;6221226;23;20012;-88
2022/02/08 02:20:53;;;;;;;2.97;1.47;;;0.80;99.90;;;;;;6242975;23;20469;-88
2022/02/08 02:23:19;;;;;;;4.53;0.70;;;0.80;99.90;;;;;;6249161;23;20004;-87
2022/02/08 02:25:44;;;;;;;4.10;0.43;;;0.80;99.90;;;;;;6250855;22;20004;-87
2022/02/08 02:28:10;;;;;;;6.07;0.70;;;0.80;99.90;;;;;;6248326;23;20000;-88
2022/02/08 02:30:36;;;;;;;0.60;0.20;;;0.80;99.90;;;;;;6246141;23;20004;-88
2022/02/08 02:33:05;;;;;;;4.90;0.60;;;0.80;99.90;;;;;;6218768;23;20075;-87
2022/02/08 02:35:31;;;;;;;2.77;0.60;;;0.80;99.90;;;;;;6245976;22;20112;-87
2022/02/08 02:37:58;;;;;;;1.40;0.50;;;0.80;99.90;;;;;;6247242;23;20000;-88
2022/02/08 02:40:24;;;;;;;3.30;0.70;;;0.90;99.90;;;;;;6244843;23;20000;-87
2022/02/08 02:42:51;;;;;;;4.23;0.60;;;0.90;99.90;;;;;;6220861;23;20000;-88
2022/02/08 02:45:20;;;;;;;0.70;0.30;;;0.90;99.90;;;;;;6220001;23;20015;-87
2022/02/08 02:47:46;;;;;;;10.83;0.97;;;0.90;99.90;;;;;;6247880;23;19997;-87
2022/02/08 02:50:11;;;;;;;4.00;0.60;;;0.80;99.90;;;;;;6245285;23;20000;-87
2022/02/08 02:52:37;;;;;;;2.53;0.67;;;0.90;99.90;;;;;;6247117;23;20008;-88
2022/02/08 02:55:04;;;;;;;1.87;0.37;;;0.90;99.90;;;;;;6220361;23;20058;-88
2022/02/08 02:57:29;;;;;;;1.60;0.40;;;0.90;99.90;;;;;;6245871;23;20004;-87
2022/02/08 03:00:05;;;;;;;4.77;0.90;;;0.90;99.90;;;;;;6217797;23;20335;-87
2022/02/08 03:05:52;;;;;;;3.30;0.30;;;1.00;99.90;;;;;;6251350;22;20402;-87
2022/02/08 03:18:49;;;;;;;3.03;0.70;;;1.20;99.90;;;;;;6245837;23;20038;-88
2022/02/08 03:21:14;;;;;;;3.13;0.73;;;1.40;99.90;;;;;;6220359;23;20000;-88
2022/02/08 03:23:41;;;;;;;0.87;0.40;;;1.30;99.90;;;;;;6219817;23;20399;-88
2022/02/08 03:26:07;;;;;;;1.83;0.40;;;1.30;99.90;;;;;;6245285;22;20435;-87
2022/02/08 03:28:33;;;;;;;4.90;0.73;;;1.30;99.90;;;;;;6220100;23;20007;-85
2022/02/08 03:30:59;;;;;;;1.83;0.60;;;1.20;99.90;;;;;;6219396;23;20008;-87
2022/02/08 03:33:26;;;;;;;5.07;0.40;;;1.20;99.90;;;;;;6219157;23;20039;-87
2022/02/08 03:35:55;;;;;;;1.77;0.50;;;1.10;99.90;;;;;;6217773;23;20061;-88
2022/02/08 03:38:37;;;;;;;3.60;0.50;;;1.20;99.90;;;;;;6219043;23;20008;-87
2022/02/08 03:41:06;;;;;;;4.07;0.50;;;1.20;99.90;;;;;;6213207;23;20051;-88
2022/02/08 03:43:33;;;;;;;1.13;0.40;;;1.20;99.90;;;;;;6241131;23;20010;-86
2022/02/08 03:46:05;;;;;;;2.97;0.57;;;1.20;99.90;;;;;;6258824;22;20008;-85
2022/02/08 03:48:33;;;;;;;2.05;0.63;;;1.20;99.90;;;;;;6276907;22;20035;-85
2022/02/08 03:51:14;;;;;;;2.10;0.57;;;1.20;99.90;;;;;;6278592;22;20090;-85
2022/02/08 03:53:43;;;;;;;2.20;0.37;;;1.20;99.90;;;;;;6276679;22;20007;-85
2022/02/08 03:56:10;;;;;;;5.17;0.60;;;1.20;99.90;;;;;;6277176;22;20335;-85
2022/02/08 03:58:36;;;;;;;4.10;0.70;;;1.20;99.90;;;;;;6301307;22;20007;-84
2022/02/08 04:01:29;;;;;;;2.33;0.43;;;1.20;99.90;;;;;;6279265;22;20038;-85
2022/02/08 04:04:53;;;;;;;6.63;0.70;;;1.20;99.90;;;;;;6281582;22;20022;-85
2022/02/08 04:06:47;;;;;;;2.97;0.50;;;1.20;99.90;;;;;;6265177;22;20050;-84
2022/02/08 04:09:13;;;;;;;2.83;0.50;;;1.30;99.90;;;;;;6296384;22;20014;-84
2022/02/08 04:11:51;;;;;;;1.33;0.30;;;1.30;99.90;;;;;;6302407;22;20007;-85
2022/02/08 04:14:28;;;;;;;2.57;0.50;;;1.30;99.90;;;;;;6277519;22;20003;-84
2022/02/08 04:16:58;;;;;;;4.40;0.57;;;1.30;99.90;;;;;;6275815;22;20345;-84
2022/02/08 04:19:37;;;;;;;1.90;0.50;;;1.30;99.90;;;;;;6276749;22;20000;-85
2022/02/08 04:38:06;;;;;;;3.80;0.80;;;1.50;99.90;;;;;;6288066;22;20008;-85
2022/02/08 04:40:52;;;;;;;2.60;0.33;;;1.50;99.90;;;;;;6281029;22;20040;-84
2022/02/08 04:46:11;;;;;;;2.33;0.70;;;1.50;99.90;;;;;;6288916;22;20106;-85
2022/02/08 04:51:13;;;;;;;5.53;0.70;;;1.40;99.90;;;;;;6286988;22;20018;-85
2022/02/08 04:53:45;;;;;;;1.67;0.40;;;1.40;99.90;;;;;;6283364;22;20004;-85
2022/02/08 04:56:40;;;;;;;1.90;0.30;;;1.40;99.90;;;;;;6281358;22;20485;-85
2022/02/08 04:59:22;;;;;;;2.97;0.37;;;1.40;99.90;;;;;;6281679;22;20046;-85
2022/02/08 05:37:34;;;;;;;6.27;0.50;;;1.80;99.90;;;;;;6275754;22;20019;-85
2022/02/08 05:43:01;;;;;;;2.27;0.60;;;1.70;99.90;;;;;;6279952;22;20018;-85
2022/02/08 05:45:31;;;;;;;1.37;0.50;;;1.70;99.90;;;;;;6304402;22;20061;-85
2022/02/08 05:48:00;;;;;;;2.67;0.33;;;1.70;99.90;;;;;;6275231;22;19999;-85
2022/02/08 05:50:40;;;;;;;3.50;0.60;;;1.70;99.90;;;;;;6283272;22;20022;-86
2022/02/08 05:53:15;;;;;;;4.10;0.50;;;1.70;99.90;;;;;;6292951;22;19992;-85
2022/02/08 05:55:41;;;;;;;3.80;0.50;;;1.70;99.90;;;;;;6310488;22;20000;-86
2022/02/08 05:58:06;;;;;;;3.77;0.40;;;1.70;99.90;;;;;;6286464;22;20030;-86
2022/02/08 06:00:32;;;;;;;3.13;0.80;;;1.70;99.90;;;;;;6284918;22;20413;-85
2022/02/08 06:03:02;;;;;;;2.37;0.60;;;1.70;99.90;;;;;;6309866;22;20003;-85
2022/02/08 06:05:28;;;;;;;3.03;0.50;;;1.80;99.90;;;;;;6286992;22;19996;-85
2022/02/08 06:07:54;;;;;;;3.63;0.40;;;1.90;99.90;;;;;;6287093;22;20003;-86
2022/02/08 06:10:19;;;;;;;2.13;0.60;;;1.80;99.90;;;;;;6285878;22;20044;-85
2022/02/08 06:12:48;;;;;;;3.90;0.60;;;1.80;99.90;;;;;;6290310;22;20010;-85
2022/02/08 06:15:17;;;;;;;1.47;0.20;;;1.80;99.90;;;;;;6288875;22;20342;-86
2022/02/08 06:17:42;;;;;;;0.73;0.40;;;1.80;99.90;;;;;;6307688;22;20008;-86
2022/02/08 06:20:09;;;;;;;2.23;0.40;;;1.80;99.90;;;;;;6272674;22;20008;-85
2022/02/08 06:22:36;;;;;;;4.13;0.60;;;1.80;99.90;;;;;;6305229;22;20346;-85
2022/02/08 06:25:06;;;;;;;0.57;0.20;;;1.90;99.90;;;;;;6278213;22;20018;-85
2022/02/08 06:27:32;;;;;;;4.67;0.40;;;1.90;99.90;;;;;;6306542;22;20026;-85
2022/02/08 06:29:59;;;;;;;3.20;0.60;;;1.90;99.90;;;;;;6307234;22;20011;-85
2022/02/08 06:32:27;;;;;;;0.77;0.27;;;1.90;99.90;;;;;;6304272;22;20076;-84
2022/02/08 06:34:55;;;;;;;4.63;0.97;;;1.90;99.90;;;;;;6306295;22;20019;-85
2022/02/08 06:37:22;;;;;;;12.83;1.00;;;1.90;99.90;;;;;;6277433;22;20069;-86
2022/02/08 06:39:51;;;;;;;2.17;0.30;;;1.90;99.90;;;;;;6301949;22;20004;-85
2022/02/08 06:42:17;;;;;;;1.40;0.43;;;2.00;99.90;;;;;;6306809;22;20446;-86
2022/02/08 06:44:43;;;;;;;2.93;0.47;;;2.00;99.90;;;;;;6282368;22;20014;-87
2022/02/08 06:47:10;;;;;;;2.10;0.73;;;2.00;99.90;;;;;;6282225;22;20008;-86
2022/02/08 06:49:35;;;;;;;1.27;0.27;;;2.20;99.90;;;;;;6279368;22;20003;-86
2022/02/08 06:52:01;;;;;;;1.07;0.40;;;2.20;99.90;;;;;;6279526;22;20291;-86
2022/02/08 06:54:27;;;;;;;2.47;0.60;;;2.20;99.90;;;;;;6304816;22;20454;-86
2022/02/08 15:05:39;;;;;;;0.43;0.10;;;8.40;99.90;;;;;;5052492;28;20035;-87
2022/02/08 15:08:40;;;;;;;0.77;0.13;;;8.40;99.90;;;;;;5034717;28;20486;-87
2022/02/08 15:11:11;;;;;;;0.30;0.10;;;8.30;99.90;;;;;;5034916;28;20075;-87
2022/02/08 15:17:34;;;;;;;1.75;0.30;;;8.20;99.90;;;;;;5008270;28;20103;-86
2022/02/08 15:23:32;;;;;;;0.93;0.10;;;8.10;99.90;;;;;;4979841;28;20088;-85
2022/02/08 15:26:45;;;;;;;;;;;;;;;;;;;;;
2022/02/08 15:29:33;;;;;;;1.27;0.20;;;8.10;99.90;;;;;;5019954;28;20029;-85
2022/02/08 15:32:34;;;;;;;0.80;0.20;;;8.00;99.90;;;;;;5008168;28;20038;-85
2022/02/08 16:13:16;;;;;;;1.53;0.20;;;7.90;99.90;;;;;;4987709;28;20030;-85
2022/02/08 16:32:32;;;;;;;0.63;0.20;;;7.70;99.90;;;;;;5033796;28;20033;-86
2022/02/08 16:51:27;;;;;;;3.90;0.40;;;7.70;99.90;;;;;;5052926;28;20035;-86
2022/02/08 17:05:42;;;;;;;1.67;0.30;;;7.60;99.90;;;;;;5053362;28;20052;-87
2022/02/08 17:08:18;;;;;;;2.03;0.23;;;7.60;99.90;;;;;;5035584;28;20107;-87
2022/02/08 17:11:00;;;;;;;2.70;0.57;;;7.50;99.90;;;;;;5049043;28;20075;-86
2022/02/08 17:57:49;;;;;;;1.73;0.50;;;7.30;99.90;;;;;;4969968;28;20214;-86
2022/02/08 18:01:06;;;;;;;1.93;0.50;;;7.10;99.90;;;;;;4959892;28;20339;-85
2022/02/08 18:04:26;;;;;;;1.70;0.57;;;7.20;99.90;;;;;;4936269;28;20039;-86
2022/02/08 18:11:28;;;;;;;;;;;;;;;;;;;;;
2022/02/08 18:52:01;;;;;;;1.63;0.40;;;7.30;99.90;;;;;;5038964;28;20079;-89
2022/02/08 19:07:24;;;;;;;0.77;0.30;;;7.20;99.90;;;;;;5042337;28;20021;-87
2022/02/08 19:13:26;;;;;;;1.67;0.40;;;7.40;99.90;;;;;;5042699;28;20032;-88
2022/02/08 19:21:07;;;;;;;1.63;0.40;;;7.40;99.90;;;;;;5040099;28;20080;-88
2022/02/08 19:23:48;;;;;;;3.23;0.40;;;7.30;99.90;;;;;;5024030;28;20025;-88
2022/02/08 19:26:17;;;;;;;2.73;0.50;;;7.40;99.90;;;;;;5028601;28;20050;-88
2022/02/08 19:28:50;;;;;;;2.03;0.30;;;7.30;99.90;;;;;;5026611;28;20091;-89
2022/02/08 19:31:21;;;;;;;1.90;0.37;;;7.30;99.90;;;;;;5027743;28;20575;-89
2022/02/08 19:33:49;;;;;;;2.55;0.35;;;7.40;99.90;;;;;;5024790;28;20048;-89
2022/02/08 19:36:33;;;;;;;2.40;0.50;;;7.30;99.90;;;;;;5028323;28;20546;-89
2022/02/08 19:39:04;;;;;;;1.93;0.40;;;7.30;99.90;;;;;;5022877;28;20080;-88
2022/02/08 19:41:39;;;;;;;1.10;0.20;;;7.20;99.90;;;;;;5029500;28;20025;-87
2022/02/08 19:44:22;;;;;;;0.43;0.20;;;7.30;99.90;;;;;;5040271;28;20029;-88
2022/02/08 19:46:57;;;;;;;1.70;0.30;;;7.30;99.90;;;;;;5027231;28;20124;-89
2022/02/08 19:49:23;;;;;;;2.13;0.50;;;7.20;99.90;;;;;;5022187;28;20033;-88
2022/02/08 19:51:58;;;;;;;3.13;0.40;;;7.10;99.90;;;;;;5041539;28;20021;-88
2022/02/08 19:54:31;;;;;;;1.67;0.50;;;7.10;99.90;;;;;;5020937;28;20049;-88
2022/02/08 19:57:16;;;;;;;1.73;0.50;;;7.10;99.90;;;;;;5032422;28;20029;-88
2022/02/08 19:59:42;;;;;;;3.63;0.50;;;7.10;99.90;;;;;;5036345;28;20021;-87
2022/02/08 20:02:15;;;;;;;2.00;0.43;;;7.10;99.90;;;;;;5027459;28;20051;-89
2022/02/08 20:04:46;;;;;;;1.90;0.57;;;7.10;99.90;;;;;;5020564;28;20029;-89
2022/02/08 20:07:13;;;;;;;1.65;0.30;;;7.20;99.90;;;;;;5050322;28;20033;-89
2022/02/08 20:09:49;;;;;;;3.37;0.40;;;7.20;99.90;;;;;;5031105;28;20018;-89
2022/02/08 20:12:15;;;;;;;1.53;0.50;;;7.10;99.90;;;;;;5028499;28;20036;-89
2022/02/08 20:14:41;;;;;;;2.03;0.60;;;7.00;99.90;;;;;;5042390;28;20100;-89
2022/02/08 20:17:16;;;;;;;2.10;0.30;;;7.00;99.90;;;;;;5028064;28;20029;-89
2022/02/08 20:19:55;;;;;;;3.43;0.60;;;7.20;99.90;;;;;;5031312;28;20076;-89
2022/02/08 20:22:33;;;;;;;2.13;0.43;;;7.00;99.90;;;;;;5028976;28;20013;-89
2022/02/08 20:25:07;;;;;;;2.10;0.40;;;6.90;99.90;;;;;;5025083;28;20049;-88
2022/02/08 20:27:53;;;;;;;1.13;0.50;;;7.00;99.90;;;;;;5042010;28;20029;-88
2022/02/08 20:30:29;;;;;;;2.57;0.70;;;7.00;99.90;;;;;;5033528;28;20018;-88
2022/02/08 20:33:06;;;;;;;4.17;0.67;;;6.90;99.90;;;;;;5040640;28;20029;-88
2022/02/08 20:35:37;;;;;;;5.10;0.60;;;6.90;99.90;;;;;;5036371;28;20048;-88
2022/02/08 20:38:48;;;;;;;3.20;1.17;;;7.00;99.90;;;;;;5041146;28;20032;-88
2022/02/08 20:41:15;;;;;;;2.97;0.63;;;6.80;99.90;;;;;;5036947;28;20021;-88
2022/02/08 20:43:43;;;;;;;3.50;0.60;;;6.90;99.90;;;;;;5041663;28;20022;-88
2022/02/08 20:46:21;;;;;;;4.67;0.70;;;6.90;99.90;;;;;;5033924;28;20026;-88
2022/02/08 20:49:04;;;;;;;4.33;0.77;;;6.90;99.90;;;;;;5024048;28;20030;-88
2022/02/08 20:51:36;;;;;;;3.50;0.70;;;6.90;99.90;;;;;;5031118;28;20112;-88
2022/02/08 20:54:25;;;;;;;2.78;0.82;;;6.90;99.90;;;;;;5035106;28;20048;-88
2022/02/08 20:57:21;;;;;;;2.23;0.90;;;6.70;99.90;;;;;;5036115;28;20026;-89
2022/02/08 20:59:54;;;;;;;1.90;0.70;;;6.80;99.90;;;;;;5034069;28;20034;-87
2022/02/08 21:02:35;;;;;;;4.07;0.70;;;6.80;99.90;;;;;;5038021;28;20088;-88
2022/02/08 21:05:29;;;;;;;1.37;0.60;;;6.80;99.90;;;;;;5039232;28;20059;-88
2022/02/08 21:07:54;;;;;;;3.97;0.80;;;6.80;99.90;;;;;;5058469;28;20010;-88
2022/02/08 21:10:23;;;;;;;4.67;1.20;;;6.80;99.90;;;;;;5059199;28;20009;-87
2022/02/08 21:15:48;;;;;;;4.83;0.97;;;6.80;99.90;;;;;;5058350;28;20052;-87
2022/02/08 21:18:19;;;;;;;4.97;1.20;;;6.70;99.90;;;;;;5056734;28;20021;-87
2022/02/08 21:20:47;;;;;;;2.63;0.60;;;6.70;99.90;;;;;;5057388;28;20045;-88
2022/02/08 21:23:25;;;;;;;2.20;0.50;;;6.80;99.90;;;;;;5041453;28;20271;-88
2022/02/08 21:25:52;;;;;;;3.43;0.80;;;6.70;99.90;;;;;;5055382;28;20022;-88
2022/02/08 21:29:29;;;;;;;3.37;1.00;;;6.60;99.90;;;;;;5048330;28;20009;-87
2022/02/08 21:47:01;;;;;;;3.70;1.03;;;6.60;99.90;;;;;;5032862;28;20080;-88
2022/02/08 21:48:41;;;;;;;7.13;1.50;;;6.50;99.90;;;;;;5044150;28;20030;-89
2022/02/08 21:51:29;;;;;;;9.03;1.00;;;6.60;99.90;;;;;;5045807;28;20055;-88
2022/02/08 21:53:59;;;;;;;5.23;1.10;;;6.60;99.90;;;;;;5048608;28;20095;-88
2022/02/08 21:56:33;;;;;;;5.37;0.87;;;6.60;99.90;;;;;;5032799;28;20032;-89
2022/02/08 21:59:07;;;;;;;6.67;1.67;;;6.60;99.90;;;;;;5049641;28;20026;-87
2022/02/08 22:01:38;;;;;;;5.70;1.30;;;6.60;99.90;;;;;;5052134;28;20048;-88
2022/02/08 22:04:09;;;;;;;4.37;1.63;;;6.60;99.90;;;;;;5039316;28;20029;-87
2022/02/08 22:06:40;;;;;;;8.77;1.50;;;6.50;99.90;;;;;;5031804;28;20272;-88
2022/02/08 22:09:09;;;;;;;4.80;1.33;;;6.50;99.90;;;;;;5028447;28;20030;-88
2022/02/08 22:17:51;;;;;;;3.65;1.52;;;6.40;99.90;;;;;;5050723;28;20063;-87
2022/02/08 22:20:41;;;;;;;4.93;1.87;;;6.40;99.90;;;;;;5046047;28;20546;-86
2022/02/08 22:23:18;;;;;;;5.30;1.40;;;6.40;99.90;;;;;;5028000;28;20029;-87
2022/02/08 22:28:57;;;;;;;3.23;1.27;;;6.40;99.90;;;;;;5030478;28;20105;-88
2022/02/08 22:31:23;;;;;;;4.90;1.40;;;6.30;99.90;;;;;;5045909;28;20029;-88
2022/02/08 22:33:58;;;;;;;4.97;1.23;;;6.30;99.90;;;;;;5032915;28;20034;-89
2022/02/08 22:36:33;;;;;;;5.07;1.50;;;6.50;99.90;;;;;;5028513;28;20060;-88
2022/02/08 22:39:08;;;;;;;5.93;1.43;;;6.30;99.90;;;;;;5031391;28;20033;-89
2022/02/08 22:44:38;;;;;;;6.37;1.13;;;6.30;99.90;;;;;;5042051;28;20052;-88
2022/02/08 22:47:09;;;;;;;5.63;1.60;;;6.30;99.90;;;;;;5029321;28;20041;-87
2022/02/08 22:49:35;;;;;;;5.27;1.30;;;6.20;99.90;;;;;;5042872;28;20021;-87
2022/02/08 22:52:04;;;;;;;3.57;1.37;;;6.20;99.90;;;;;;5044810;28;20081;-88
2022/02/08 22:54:30;;;;;;;1.90;1.00;;;6.20;99.90;;;;;;5030717;28;20029;-88
2022/02/08 22:56:56;;;;;;;3.37;1.17;;;6.20;99.90;;;;;;5031368;28;20025;-88
2022/02/08 22:59:24;;;;;;;4.03;1.27;;;6.30;99.90;;;;;;5028609;28;20372;-87
2022/02/08 23:01:50;;;;;;;6.80;1.43;;;6.30;99.90;;;;;;5025045;28;20041;-88
2022/02/08 23:04:19;;;;;;;7.70;1.37;;;6.30;99.90;;;;;;5042197;28;20025;-88
2022/02/08 23:06:54;;;;;;;4.13;1.40;;;6.10;99.90;;;;;;5046335;28;20025;-88
2022/02/08 23:09:27;;;;;;;4.37;2.13;;;6.20;99.90;;;;;;5027038;28;20112;-87
2022/02/08 23:14:26;;;;;;;4.88;1.77;;;6.20;99.90;;;;;;5042190;28;20033;-87
2022/02/08 23:38:24;;;;;;;5.80;1.53;;;6.10;99.90;;;;;;5044885;28;20021;-86
2022/02/08 23:40:49;;;;;;;7.37;1.23;;;6.10;99.90;;;;;;5030228;28;20014;-87
2022/02/08 23:43:20;;;;;;;2.83;1.23;;;6.10;99.90;;;;;;5030891;28;20486;-87
2022/02/08 23:45:48;;;;;;;6.97;1.37;;;6.00;99.90;;;;;;5044567;28;20106;-87
2022/02/08 23:48:23;;;;;;;8.40;1.70;;;6.00;99.90;;;;;;5047370;28;20083;-87
2022/02/08 23:50:53;;;;;;;5.00;1.40;;;5.90;99.90;;;;;;5045275;28;20455;-87
2022/02/08 23:53:30;;;;;;;4.87;1.50;;;6.10;99.90;;;;;;5048170;28;20046;-87
2022/02/08 23:56:06;;;;;;;6.93;1.77;;;6.00;99.90;;;;;;5048301;28;20036;-86
2022/02/08 23:58:39;;;;;;;5.43;1.50;;;6.00;99.90;;;;;;5047654;28;20108;-87
